createdAt,value
2022-08-31T00:00:30.290Z,13.07
2022-08-31T00:02:54.067Z,13.23
2022-08-31T00:05:01.022Z,13.52
2022-08-31T00:07:08.166Z,14.05
2022-08-31T00:09:15.655Z,13.15
2022-08-31T00:11:29.644Z,13.23
2022-08-31T00:13:36.676Z,11.70
2022-08-31T00:15:44.469Z,10.43
2022-08-31T00:17:52.070Z,10.98
2022-08-31T00:19:59.091Z,10.60
2022-08-31T00:22:06.785Z,9.93
2022-08-31T00:24:15.092Z,9.07
2022-08-31T00:26:24.685Z,9.32
2022-08-31T00:28:32.525Z,8.60
2022-08-31T00:30:40.115Z,8.60
2022-08-31T00:32:47.040Z,8.70
2022-08-31T00:34:55.242Z,8.45
2022-08-31T00:37:03.102Z,8.07
2022-08-31T00:39:11.348Z,8.23
2022-08-31T00:41:20.831Z,7.00
2022-08-31T00:43:45.123Z,6.32
2022-08-31T00:45:52.774Z,5.03
2022-08-31T00:47:59.886Z,6.00
2022-08-31T00:50:09.586Z,6.43
2022-08-31T00:52:21.575Z,6.35
2022-08-31T00:54:33.671Z,6.10
2022-08-31T00:56:42.184Z,6.40
2022-08-31T00:58:54.876Z,6.30
2022-08-31T01:01:02.516Z,5.57
2022-08-31T01:03:11.324Z,6.30
2022-08-31T01:05:19.676Z,5.85
2022-08-31T01:07:27.208Z,5.70
2022-08-31T01:09:39.815Z,6.30
2022-08-31T01:11:52.526Z,5.07
2022-08-31T01:14:01.809Z,5.05
2022-08-31T01:16:13.668Z,5.43
2022-08-31T01:18:21.961Z,5.18
2022-08-31T01:20:35.650Z,5.13
2022-08-31T01:22:52.649Z,6.10
2022-08-31T01:25:02.500Z,5.68
2022-08-31T01:27:09.891Z,5.60
2022-08-31T01:29:17.394Z,5.50
2022-08-31T01:31:29.188Z,6.18
2022-08-31T01:33:38.080Z,5.70
2022-08-31T01:35:48.142Z,5.93
2022-08-31T01:37:56.591Z,6.05
2022-08-31T01:40:05.746Z,5.80
2022-08-31T01:42:13.107Z,6.07
2022-08-31T01:44:22.130Z,5.30
2022-08-31T01:46:30.315Z,4.45
2022-08-31T01:48:41.236Z,5.03
2022-08-31T01:50:49.055Z,4.38
2022-08-31T01:52:56.591Z,4.68
2022-08-31T01:55:07.256Z,4.07
2022-08-31T01:57:14.344Z,3.95
2022-08-31T01:59:41.386Z,4.00
2022-08-31T02:02:00.986Z,4.00
2022-08-31T02:04:10.592Z,3.92
2022-08-31T02:06:17.888Z,4.20
2022-08-31T02:08:26.595Z,4.15
2022-08-31T02:10:35.413Z,4.15
2022-08-31T02:12:42.955Z,4.38
2022-08-31T02:14:49.881Z,3.90
2022-08-31T02:16:59.469Z,3.85
2022-08-31T02:19:07.122Z,3.67
2022-08-31T02:21:14.942Z,3.75
2022-08-31T02:23:22.397Z,3.35
2022-08-31T02:25:30.139Z,3.22
2022-08-31T02:27:41.268Z,3.60
2022-08-31T02:29:50.633Z,3.00
2022-08-31T02:31:58.394Z,3.38
2022-08-31T02:34:06.232Z,3.40
2022-08-31T02:36:13.989Z,3.50
2022-08-31T02:38:22.194Z,2.83
2022-08-31T02:40:31.049Z,2.92
2022-08-31T02:42:52.734Z,3.28
2022-08-31T02:45:04.994Z,2.63
2022-08-31T02:47:12.022Z,3.17
2022-08-31T02:49:37.327Z,2.55
2022-08-31T02:51:45.418Z,2.30
2022-08-31T02:53:52.605Z,2.53
2022-08-31T02:55:59.578Z,2.60
2022-08-31T02:58:08.968Z,2.35
2022-08-31T03:00:17.530Z,2.50
2022-08-31T03:02:31.759Z,2.60
2022-08-31T03:04:39.626Z,2.33
2022-08-31T03:06:46.865Z,2.92
2022-08-31T03:08:54.958Z,2.72
2022-08-31T03:11:03.623Z,2.47
2022-08-31T03:13:12.454Z,2.80
2022-08-31T03:15:21.365Z,2.65
2022-08-31T03:17:28.340Z,2.97
2022-08-31T03:19:35.735Z,2.78
2022-08-31T03:21:43.626Z,2.95
2022-08-31T03:23:54.906Z,2.58
2022-08-31T03:26:02.601Z,2.88
2022-08-31T03:28:11.881Z,2.60
2022-08-31T03:30:25.000Z,2.25
2022-08-31T03:32:51.290Z,2.70
2022-08-31T03:35:01.077Z,2.67
2022-08-31T03:37:08.821Z,2.80
2022-08-31T03:39:16.252Z,2.38
2022-08-31T03:41:27.942Z,2.40
2022-08-31T03:43:37.029Z,2.30
2022-08-31T03:45:45.075Z,2.30
2022-08-31T03:47:52.253Z,2.33
2022-08-31T03:49:59.740Z,2.05
2022-08-31T03:52:15.283Z,1.73
2022-08-31T03:54:27.004Z,2.03
2022-08-31T03:56:34.086Z,2.15
2022-08-31T03:58:42.904Z,2.33
2022-08-31T04:00:51.723Z,2.13
2022-08-31T04:03:18.631Z,1.90
2022-08-31T04:05:45.267Z,1.98
2022-08-31T04:07:52.999Z,2.15
2022-08-31T04:10:13.594Z,1.95
2022-08-31T04:12:32.963Z,1.77
2022-08-31T04:15:01.497Z,1.70
2022-08-31T04:17:20.810Z,1.75
2022-08-31T04:19:34.654Z,1.95
2022-08-31T04:21:57.139Z,1.75
2022-08-31T04:24:05.405Z,2.08
2022-08-31T04:26:19.747Z,2.17
2022-08-31T04:28:27.950Z,2.03
2022-08-31T04:30:36.880Z,2.03
2022-08-31T04:32:43.960Z,2.08
2022-08-31T04:34:56.070Z,1.60
2022-08-31T04:37:04.109Z,1.83
2022-08-31T04:39:12.568Z,1.70
2022-08-31T04:41:22.774Z,1.75
2022-08-31T04:43:31.995Z,2.30
2022-08-31T04:45:46.167Z,2.22
2022-08-31T04:47:54.712Z,2.30
2022-08-31T04:50:01.745Z,2.30
2022-08-31T04:52:09.581Z,2.05
2022-08-31T04:54:17.225Z,1.98
2022-08-31T04:56:26.873Z,2.20
2022-08-31T04:58:33.787Z,2.50
2022-08-31T05:00:45.575Z,2.20
2022-08-31T05:03:04.894Z,2.15
2022-08-31T05:05:13.710Z,2.20
2022-08-31T05:07:23.610Z,2.30
2022-08-31T05:09:30.788Z,2.30
2022-08-31T05:11:38.536Z,2.17
2022-08-31T05:13:47.199Z,2.20
2022-08-31T05:15:56.592Z,2.00
2022-08-31T05:18:03.612Z,2.20
2022-08-31T05:20:13.970Z,2.60
2022-08-31T05:22:21.046Z,2.15
2022-08-31T05:24:36.881Z,1.90
2022-08-31T05:26:47.082Z,2.28
2022-08-31T05:28:56.157Z,2.20
2022-08-31T05:31:06.182Z,2.50
2022-08-31T05:33:19.085Z,2.20
2022-08-31T05:35:26.204Z,2.70
2022-08-31T05:37:33.645Z,2.15
2022-08-31T05:39:41.090Z,2.47
2022-08-31T05:41:50.411Z,2.28
2022-08-31T05:43:58.572Z,2.60
2022-08-31T05:46:10.594Z,2.72
2022-08-31T05:48:19.289Z,2.20
2022-08-31T05:50:26.786Z,2.50
2022-08-31T05:52:34.205Z,2.72
2022-08-31T05:54:41.188Z,2.90
2022-08-31T05:56:48.981Z,2.90
2022-08-31T05:58:58.971Z,2.40
2022-08-31T06:01:16.040Z,3.08
2022-08-31T06:03:35.969Z,2.58
2022-08-31T06:05:44.992Z,2.70
2022-08-31T06:07:52.692Z,2.70
2022-08-31T06:10:00.685Z,2.70
2022-08-31T06:12:09.862Z,2.85
2022-08-31T06:14:18.127Z,3.42
2022-08-31T06:16:29.668Z,3.60
2022-08-31T06:18:37.449Z,3.50
2022-08-31T06:20:44.687Z,2.83
2022-08-31T06:22:52.438Z,2.80
2022-08-31T06:25:11.436Z,3.10
2022-08-31T06:27:18.471Z,3.10
2022-08-31T06:29:27.232Z,3.40
2022-08-31T06:31:38.659Z,3.10
2022-08-31T06:33:48.561Z,3.85
2022-08-31T06:35:59.893Z,4.38
2022-08-31T06:40:47.231Z,4.20
2022-08-31T06:43:06.547Z,3.60
2022-08-31T06:45:25.971Z,3.83
2022-08-31T06:47:54.247Z,3.33
2022-08-31T06:50:01.635Z,3.30
2022-08-31T06:52:09.062Z,3.10
2022-08-31T06:54:35.518Z,3.10
2022-08-31T06:56:54.820Z,2.92
2022-08-31T06:59:24.277Z,3.50
2022-08-31T07:01:47.571Z,3.30
2022-08-31T07:04:03.166Z,3.42
2022-08-31T07:06:12.533Z,3.50
2022-08-31T07:08:19.650Z,3.45
2022-08-31T07:10:27.564Z,2.78
2022-08-31T07:12:34.896Z,2.97
2022-08-31T07:14:42.385Z,3.45
2022-08-31T07:16:59.195Z,4.25
2022-08-31T07:19:09.101Z,3.10
2022-08-31T07:21:18.940Z,3.70
2022-08-31T07:23:26.371Z,2.75
2022-08-31T07:25:41.344Z,2.45
2022-08-31T07:27:51.594Z,2.83
2022-08-31T07:30:01.337Z,1.70
2022-08-31T07:32:14.143Z,2.03
2022-08-31T07:34:26.913Z,1.90
2022-08-31T07:37:10.182Z,2.00
2022-08-31T07:39:34.019Z,1.52
2022-08-31T07:41:58.031Z,2.00
2022-08-31T07:44:05.113Z,2.10
2022-08-31T07:46:12.876Z,1.75
2022-08-31T07:48:20.088Z,1.55
2022-08-31T07:50:47.778Z,1.40
2022-08-31T07:53:02.661Z,1.40
2022-08-31T07:55:31.245Z,1.85
2022-08-31T08:02:05.163Z,1.20
2022-08-31T08:04:14.413Z,1.70
2022-08-31T08:06:35.881Z,1.90
2022-08-31T08:09:21.315Z,1.73
2022-08-31T08:11:36.635Z,1.52
2022-08-31T08:13:56.903Z,1.70
2022-08-31T08:16:16.151Z,1.90
2022-08-31T08:18:40.576Z,1.95
2022-08-31T08:20:49.399Z,1.55
2022-08-31T08:22:58.725Z,1.50
2022-08-31T08:25:13.837Z,1.80
2022-08-31T08:27:32.745Z,2.20
2022-08-31T08:29:59.434Z,1.92
2022-08-31T08:32:11.458Z,1.80
2022-08-31T08:34:22.412Z,1.70
2022-08-31T08:36:41.867Z,1.70
2022-08-31T08:38:52.375Z,1.80
2022-08-31T08:41:00.788Z,1.92
2022-08-31T08:43:08.479Z,1.90
2022-08-31T08:45:15.720Z,1.85
2022-08-31T08:47:27.393Z,1.80
2022-08-31T08:49:54.543Z,1.80
2022-08-31T08:52:12.534Z,1.85
2022-08-31T08:54:31.651Z,1.60
2022-08-31T08:56:48.813Z,2.00
2022-08-31T08:59:00.347Z,1.70
2022-08-31T09:01:15.216Z,1.58
2022-08-31T09:03:34.477Z,1.90
2022-08-31T09:06:08.231Z,1.90
2022-08-31T09:08:38.756Z,1.77
2022-08-31T09:10:51.265Z,1.70
2022-08-31T09:13:12.012Z,1.60
2022-08-31T09:15:39.108Z,1.90
2022-08-31T09:17:59.811Z,2.05
2022-08-31T09:20:09.038Z,2.10
2022-08-31T09:22:16.529Z,2.20
2022-08-31T09:24:28.677Z,2.38
2022-08-31T09:27:18.546Z,2.28
2022-08-31T09:29:27.843Z,2.85
2022-08-31T09:31:40.187Z,2.90
2022-08-31T09:33:53.057Z,2.53
2022-08-31T09:36:17.905Z,2.88
2022-08-31T09:38:31.998Z,2.13
2022-08-31T09:40:42.860Z,1.90
2022-08-31T09:43:05.816Z,1.90
2022-08-31T09:45:21.094Z,1.75
2022-08-31T09:47:53.258Z,1.80
2022-08-31T09:50:01.049Z,2.30
2022-08-31T09:52:42.643Z,2.38
2022-08-31T09:55:18.696Z,2.65
2022-08-31T09:57:47.239Z,3.72
2022-08-31T09:59:57.028Z,3.78
2022-08-31T10:02:06.120Z,3.92
2022-08-31T10:04:21.164Z,4.93
2022-08-31T10:06:46.944Z,4.80
2022-08-31T10:09:00.074Z,4.70
2022-08-31T10:11:13.338Z,3.85
2022-08-31T10:13:24.859Z,4.15
2022-08-31T10:15:40.471Z,3.40
2022-08-31T10:17:54.238Z,3.38
2022-08-31T10:20:07.603Z,6.03
2022-08-31T10:22:26.559Z,10.02
2022-08-31T10:24:40.508Z,8.98
2022-08-31T10:26:52.186Z,5.05
2022-08-31T10:29:05.155Z,3.80
2022-08-31T10:31:23.469Z,2.70
2022-08-31T10:33:56.790Z,3.08
2022-08-31T10:36:04.588Z,2.80
2022-08-31T10:38:25.251Z,3.08
2022-08-31T10:40:35.791Z,2.92
2022-08-31T10:42:46.150Z,3.05
2022-08-31T10:44:58.106Z,3.10
2022-08-31T10:47:08.664Z,3.80
2022-08-31T10:49:21.981Z,3.85
2022-08-31T10:51:34.085Z,3.60
2022-08-31T10:53:53.443Z,3.47
2022-08-31T10:56:15.473Z,4.10
2022-08-31T10:58:32.333Z,4.10
2022-08-31T11:00:50.732Z,4.20
2022-08-31T11:03:08.874Z,3.65
2022-08-31T11:05:34.535Z,3.70
2022-08-31T11:07:48.320Z,3.97
2022-08-31T11:10:06.470Z,3.88
2022-08-31T11:12:16.926Z,4.95
2022-08-31T11:14:46.477Z,6.57
2022-08-31T11:17:14.032Z,7.95
2022-08-31T11:19:42.676Z,7.22
2022-08-31T11:22:17.554Z,7.30
2022-08-31T11:24:47.975Z,6.97
2022-08-31T11:27:03.246Z,7.32
2022-08-31T11:29:19.946Z,6.43
2022-08-31T11:31:31.446Z,6.90
2022-08-31T11:33:44.415Z,6.47
2022-08-31T11:36:07.870Z,7.35
2022-08-31T11:38:49.654Z,7.90
2022-08-31T11:41:06.820Z,8.45
2022-08-31T11:43:17.399Z,8.25
2022-08-31T11:45:35.723Z,7.05
2022-08-31T11:47:47.822Z,6.50
2022-08-31T11:49:56.905Z,7.38
2022-08-31T11:52:11.561Z,8.88
2022-08-31T11:54:43.056Z,9.68
2022-08-31T11:56:50.551Z,8.45
2022-08-31T11:59:27.522Z,6.70
2022-08-31T12:01:44.125Z,7.47
2022-08-31T12:03:53.939Z,8.25
2022-08-31T12:06:01.107Z,7.53
2022-08-31T12:08:16.423Z,7.40
2022-08-31T12:10:55.505Z,6.22
2022-08-31T12:13:24.240Z,5.32
2022-08-31T12:15:45.015Z,4.95
2022-08-31T12:18:05.234Z,5.63
2022-08-31T12:20:19.168Z,5.65
2022-08-31T12:23:30.783Z,5.22
2022-08-31T12:28:04.632Z,5.35
2022-08-31T12:30:21.028Z,6.63
2022-08-31T12:32:34.507Z,6.30
2022-08-31T12:34:44.050Z,6.25
2022-08-31T12:36:51.129Z,5.85
2022-08-31T12:39:10.848Z,5.65
2022-08-31T12:41:23.443Z,5.40
2022-08-31T12:43:39.858Z,5.70
2022-08-31T12:46:20.929Z,5.43
2022-08-31T12:48:50.112Z,5.15
2022-08-31T12:51:04.134Z,5.75
2022-08-31T12:53:44.222Z,5.47
2022-08-31T12:56:00.985Z,6.22
2022-08-31T12:58:34.951Z,6.28
2022-08-31T13:00:44.582Z,6.38
2022-08-31T13:02:54.549Z,6.57
2022-08-31T13:05:02.226Z,7.00
2022-08-31T13:07:22.454Z,7.15
2022-08-31T13:09:32.093Z,6.88
2022-08-31T13:11:41.839Z,6.18
2022-08-31T13:13:50.617Z,6.00
2022-08-31T13:16:05.726Z,6.30
2022-08-31T13:18:18.641Z,6.43
2022-08-31T13:20:29.464Z,5.97
2022-08-31T13:22:42.323Z,7.10
2022-08-31T13:24:53.669Z,6.47
2022-08-31T13:27:11.484Z,7.22
2022-08-31T13:29:26.597Z,6.78
2022-08-31T13:31:36.894Z,6.57
2022-08-31T13:33:44.507Z,7.53
2022-08-31T13:35:53.210Z,7.78
2022-08-31T13:38:06.744Z,3.50
2022-08-31T13:40:20.367Z,2.95
2022-08-31T13:42:34.776Z,2.55
2022-08-31T13:44:47.239Z,2.10
2022-08-31T13:47:01.301Z,1.70
2022-08-31T13:49:11.987Z,1.52
2022-08-31T13:51:22.856Z,1.40
2022-08-31T13:53:42.216Z,1.20
2022-08-31T13:55:50.687Z,1.35
2022-08-31T13:58:01.917Z,1.40
2022-08-31T14:00:36.701Z,1.30
2022-08-31T14:02:43.838Z,1.27
2022-08-31T14:05:04.321Z,1.38
2022-08-31T14:07:11.600Z,1.02
2022-08-31T14:09:20.940Z,1.40
2022-08-31T14:11:30.215Z,1.75
2022-08-31T14:13:38.271Z,1.45
2022-08-31T14:15:54.663Z,1.60
2022-08-31T14:20:39.039Z,1.63
2022-08-31T14:22:47.750Z,1.67
2022-08-31T14:24:56.666Z,1.90
2022-08-31T14:27:03.962Z,1.98
2022-08-31T14:29:13.285Z,1.60
2022-08-31T14:31:27.124Z,1.75
2022-08-31T14:33:36.111Z,2.00
2022-08-31T14:35:43.285Z,1.73
2022-08-31T14:37:50.205Z,1.70
2022-08-31T14:40:01.866Z,2.28
2022-08-31T14:42:18.604Z,2.17
2022-08-31T14:44:28.952Z,1.73
2022-08-31T14:46:40.036Z,1.67
2022-08-31T14:48:47.678Z,1.90
2022-08-31T14:50:54.644Z,1.88
2022-08-31T14:53:02.138Z,1.98
2022-08-31T14:55:12.129Z,2.20
2022-08-31T14:57:26.276Z,1.90
2022-08-31T14:59:33.972Z,2.10
2022-08-31T15:01:45.603Z,2.00
2022-08-31T15:03:52.891Z,2.28
2022-08-31T15:06:01.247Z,2.13
2022-08-31T15:08:08.947Z,2.25
2022-08-31T15:10:17.157Z,2.20
2022-08-31T15:12:24.279Z,2.47
2022-08-31T15:14:32.839Z,2.03
2022-08-31T15:16:40.074Z,2.20
2022-08-31T15:18:49.047Z,2.22
2022-08-31T15:20:56.994Z,2.33
2022-08-31T15:23:04.742Z,2.22
2022-08-31T15:25:13.567Z,2.50
2022-08-31T15:27:21.723Z,2.97
2022-08-31T15:29:30.501Z,3.85
2022-08-31T15:31:37.956Z,3.33
2022-08-31T15:33:50.479Z,2.60
2022-08-31T15:36:08.569Z,3.13
2022-08-31T15:38:15.698Z,3.30
2022-08-31T15:40:22.919Z,2.80
2022-08-31T15:42:30.676Z,3.42
2022-08-31T15:44:38.265Z,3.30
2022-08-31T15:47:01.730Z,2.90
2022-08-31T15:49:09.319Z,3.13
2022-08-31T15:51:25.039Z,3.33
2022-08-31T15:53:33.755Z,2.45
2022-08-31T15:55:41.911Z,2.00
2022-08-31T15:57:49.654Z,2.28
2022-08-31T15:59:57.159Z,1.80
2022-08-31T16:02:04.818Z,1.88
2022-08-31T16:04:13.311Z,1.95
2022-08-31T16:06:24.898Z,2.10
2022-08-31T16:08:32.373Z,1.80
2022-08-31T16:10:40.434Z,2.10
2022-08-31T16:12:48.286Z,1.80
2022-08-31T16:14:56.688Z,1.90
2022-08-31T16:17:04.222Z,2.20
2022-08-31T16:19:27.799Z,1.73
2022-08-31T16:21:47.109Z,2.15
2022-08-31T16:24:02.222Z,2.10
2022-08-31T16:26:12.944Z,1.80
2022-08-31T16:28:22.023Z,2.17
2022-08-31T16:30:31.246Z,1.98
2022-08-31T16:32:39.097Z,1.88
2022-08-31T16:34:46.794Z,1.75
2022-08-31T16:36:58.740Z,1.85
2022-08-31T16:39:07.093Z,1.60
2022-08-31T16:41:15.751Z,1.70
2022-08-31T16:43:23.547Z,2.05
2022-08-31T16:45:31.379Z,1.98
2022-08-31T16:47:38.933Z,2.22
2022-08-31T16:49:45.721Z,2.28
2022-08-31T16:51:54.325Z,1.80
2022-08-31T16:54:05.805Z,2.00
2022-08-31T16:56:13.354Z,2.03
2022-08-31T16:58:34.847Z,2.15
2022-08-31T17:00:48.584Z,2.50
2022-08-31T17:02:56.598Z,2.10
2022-08-31T17:05:06.246Z,2.28
2022-08-31T17:07:15.477Z,2.03
2022-08-31T17:09:27.771Z,2.80
2022-08-31T17:11:38.124Z,2.58
2022-08-31T17:13:48.901Z,3.45
2022-08-31T17:15:56.603Z,3.10
2022-08-31T17:18:04.175Z,4.18
2022-08-31T17:20:14.732Z,3.65
2022-08-31T17:22:27.082Z,3.40
2022-08-31T17:24:44.674Z,3.55
2022-08-31T17:26:53.800Z,3.65
2022-08-31T17:29:03.950Z,4.10
2022-08-31T17:31:11.720Z,3.72
2022-08-31T17:33:19.175Z,3.55
2022-08-31T17:35:27.638Z,3.80
2022-08-31T17:37:39.338Z,3.97
2022-08-31T17:39:48.991Z,3.55
2022-08-31T17:41:57.170Z,3.60
2022-08-31T17:44:05.325Z,3.50
2022-08-31T17:46:15.753Z,3.40
2022-08-31T17:48:23.324Z,3.40
2022-08-31T17:50:31.578Z,3.13
2022-08-31T17:52:39.592Z,3.42
2022-08-31T17:54:48.657Z,3.08
2022-08-31T17:56:58.503Z,3.70
2022-08-31T17:59:06.451Z,3.67
2022-08-31T18:01:19.928Z,3.58
2022-08-31T18:05:34.407Z,3.70
2022-08-31T18:07:42.306Z,3.72
2022-08-31T18:09:51.477Z,3.67
2022-08-31T18:11:59.524Z,3.55
2022-08-31T18:14:07.071Z,3.63
2022-08-31T18:16:15.842Z,4.05
2022-08-31T18:18:23.476Z,3.70
2022-08-31T18:20:31.382Z,3.90
2022-08-31T18:22:38.864Z,4.45
2022-08-31T18:24:47.172Z,3.92
2022-08-31T18:26:58.242Z,3.85
2022-08-31T18:29:05.685Z,4.03
2022-08-31T18:31:13.613Z,3.72
2022-08-31T18:33:22.408Z,3.70
2022-08-31T18:35:32.909Z,3.83
2022-08-31T18:37:40.454Z,4.38
2022-08-31T18:40:07.666Z,3.70
2022-08-31T18:42:34.343Z,3.60
2022-08-31T18:44:59.247Z,3.55
2022-08-31T18:47:08.669Z,3.78
2022-08-31T18:49:16.375Z,3.60
2022-08-31T18:51:25.046Z,3.25
2022-08-31T18:53:34.116Z,3.70
2022-08-31T18:55:42.432Z,3.83
2022-08-31T18:57:51.753Z,4.20
2022-08-31T19:00:04.051Z,4.15
2022-08-31T19:02:11.947Z,4.28
2022-08-31T19:04:21.905Z,4.43
2022-08-31T19:06:30.923Z,4.35
2022-08-31T19:08:39.089Z,4.35
2022-08-31T19:10:46.514Z,4.20
2022-08-31T19:12:58.668Z,5.10
2022-08-31T19:15:06.568Z,4.72
2022-08-31T19:17:14.659Z,4.32
2022-08-31T19:19:22.409Z,4.15
2022-08-31T19:21:32.059Z,4.80
2022-08-31T19:23:39.694Z,4.32
2022-08-31T19:25:49.072Z,4.38
2022-08-31T19:27:58.451Z,4.28
2022-08-31T19:30:07.637Z,3.47
2022-08-31T19:32:15.428Z,3.80
2022-08-31T19:34:25.781Z,3.47
2022-08-31T19:36:36.453Z,3.30
2022-08-31T19:38:44.806Z,3.70
2022-08-31T19:40:52.294Z,3.95
2022-08-31T19:43:43.665Z,3.90
2022-08-31T19:45:42.401Z,4.00
2022-08-31T19:47:50.764Z,3.72
2022-08-31T19:49:58.351Z,3.40
2022-08-31T19:52:08.701Z,3.30
2022-08-31T19:54:16.304Z,3.08
2022-08-31T19:56:25.999Z,3.47
2022-08-31T19:58:35.829Z,3.33
2022-08-31T20:00:44.700Z,3.40
2022-08-31T20:02:56.974Z,3.30
2022-08-31T20:05:04.597Z,3.05
2022-08-31T20:07:12.234Z,2.75
2022-08-31T20:09:20.754Z,3.05
2022-08-31T20:11:30.701Z,2.55
2022-08-31T20:13:42.700Z,3.05
2022-08-31T20:15:50.389Z,2.60
2022-08-31T20:17:59.413Z,3.30
2022-08-31T20:20:07.457Z,2.83
2022-08-31T20:22:15.116Z,3.35
2022-08-31T20:24:22.906Z,3.00
2022-08-31T20:26:33.127Z,2.90
2022-08-31T20:28:42.698Z,2.90
2022-08-31T20:30:50.438Z,3.20
2022-08-31T20:32:57.972Z,3.65
2022-08-31T20:35:05.927Z,3.47
2022-08-31T20:37:14.383Z,3.20
2022-08-31T20:39:24.436Z,3.38
2022-08-31T20:41:36.382Z,3.70
2022-08-31T20:43:46.276Z,3.92
2022-08-31T20:45:54.335Z,3.70
2022-08-31T20:48:17.146Z,3.25
2022-08-31T20:50:26.365Z,2.78
2022-08-31T20:52:36.450Z,3.53
2022-08-31T20:54:44.054Z,2.63
2022-08-31T20:56:51.645Z,3.38
2022-08-31T20:59:00.414Z,3.13
2022-08-31T21:01:08.983Z,3.72
2022-08-31T21:03:17.076Z,3.53
2022-08-31T21:05:40.826Z,3.45
2022-08-31T21:07:48.139Z,3.08
2022-08-31T21:09:55.382Z,3.60
2022-08-31T21:12:07.991Z,3.22
2022-08-31T21:14:17.572Z,3.05
2022-08-31T21:16:27.125Z,3.28
2022-08-31T21:18:35.974Z,3.33
2022-08-31T21:20:43.110Z,3.00
2022-08-31T21:22:50.447Z,3.30
2022-08-31T21:25:01.528Z,3.33
2022-08-31T21:27:10.181Z,3.28
2022-08-31T21:29:20.537Z,3.70
2022-08-31T21:31:29.997Z,3.78
2022-08-31T21:33:37.880Z,3.40
2022-08-31T21:35:44.901Z,3.53
2022-08-31T21:37:52.441Z,3.35
2022-08-31T21:39:59.474Z,3.50
2022-08-31T21:42:07.566Z,3.78
2022-08-31T21:44:17.770Z,3.60
2022-08-31T21:46:28.909Z,4.18
2022-08-31T21:48:37.523Z,4.00
2022-08-31T21:50:46.854Z,3.78
2022-08-31T21:53:00.084Z,3.75
2022-08-31T21:55:09.348Z,3.40
2022-08-31T21:57:17.095Z,4.10
2022-08-31T21:59:27.250Z,4.10
2022-08-31T22:01:39.045Z,4.55
2022-08-31T22:03:46.166Z,5.07
2022-08-31T22:05:54.230Z,5.10
2022-08-31T22:08:02.675Z,4.90
2022-08-31T22:10:12.374Z,4.95
2022-08-31T22:12:19.602Z,4.93
2022-08-31T22:14:30.374Z,5.10
2022-08-31T22:16:40.476Z,7.43
2022-08-31T22:19:07.202Z,9.45
2022-08-31T22:21:17.357Z,8.27
2022-08-31T22:23:24.945Z,7.57
2022-08-31T22:25:33.438Z,7.28
2022-08-31T22:27:40.591Z,8.02
2022-08-31T22:29:48.079Z,7.78
2022-08-31T22:32:00.175Z,7.63
2022-08-31T22:36:23.428Z,6.43
2022-08-31T22:38:39.341Z,6.22
2022-08-31T22:40:48.708Z,6.40
2022-08-31T22:42:56.930Z,6.45
2022-08-31T22:45:04.156Z,5.97
2022-08-31T22:47:12.834Z,5.60
2022-08-31T22:49:20.161Z,5.75
2022-08-31T22:51:27.186Z,5.53
2022-08-31T22:53:34.174Z,5.25
2022-08-31T22:55:42.224Z,5.10
2022-08-31T22:57:49.507Z,4.75
2022-08-31T22:59:56.790Z,4.97
2022-08-31T23:02:05.180Z,5.00
2022-08-31T23:04:16.039Z,4.38
2022-08-31T23:06:24.470Z,5.00
2022-08-31T23:08:31.550Z,5.30
2022-08-31T23:10:38.590Z,5.47
2022-08-31T23:12:46.119Z,5.63
2022-08-31T23:14:53.094Z,5.80
2022-08-31T23:17:01.917Z,5.22
2022-08-31T23:19:13.242Z,4.88
2022-08-31T23:21:22.374Z,4.85
2022-08-31T23:23:29.398Z,4.30
2022-08-31T23:25:36.632Z,5.07
2022-08-31T23:27:43.662Z,4.85
2022-08-31T23:29:52.961Z,4.85
2022-08-31T23:32:01.972Z,4.85
2022-08-31T23:34:12.588Z,5.30
2022-08-31T23:36:21.251Z,5.30
2022-08-31T23:38:29.093Z,6.28
2022-08-31T23:40:36.332Z,7.53
2022-08-31T23:42:43.418Z,9.10
2022-08-31T23:44:51.318Z,10.07
2022-08-31T23:46:58.227Z,8.50
2022-08-31T23:49:06.701Z,8.68
2022-08-31T23:51:14.600Z,7.82
2022-08-31T23:53:23.725Z,8.88
2022-08-31T23:55:32.288Z,8.63
2022-08-31T23:57:40.690Z,8.98
2022-08-31T23:59:52.685Z,7.07
